Time;durP1;ratioP1;P1;durP2;ratioP2;P2;SDS_P1;SDS_P2;PMS_P1;PMS_P2;Temp;Humidity;BMP_temperature;BMP_pressure;BME280_temperature;BME280_humidity;BME280_pressure;Samples;Min_cycle;Max_cycle;Signal;HPM_P1;HPM_P2
2023/03/10 00:02:20;;;;;;;10.38;3.70;;;10.40;99.90;;;;;;5092632;28;20211;-59
2023/03/10 00:04:56;;;;;;;6.93;4.25;;;10.50;99.90;;;;;;5095562;28;20170;-59
2023/03/10 00:07:22;;;;;;;7.78;4.20;;;10.50;99.90;;;;;;5096613;28;20181;-59
2023/03/10 00:09:47;;;;;;;7.82;3.75;;;10.40;99.90;;;;;;5096662;28;20566;-59
2023/03/10 00:12:13;;;;;;;6.20;3.90;;;10.40;99.90;;;;;;5096320;28;20670;-59
2023/03/10 00:14:39;;;;;;;5.45;3.92;;;10.40;99.90;;;;;;5096553;28;20170;-60
2023/03/10 00:17:05;;;;;;;7.80;4.45;;;10.20;99.90;;;;;;5095148;28;20532;-59
2023/03/10 00:19:31;;;;;;;6.43;4.00;;;10.20;99.90;;;;;;5095107;28;20189;-59
2023/03/10 00:21:57;;;;;;;4.68;4.00;;;10.20;99.90;;;;;;5095981;28;20202;-59
2023/03/10 00:24:22;;;;;;;5.00;3.83;;;10.30;99.90;;;;;;5096217;28;20185;-59
2023/03/10 00:26:49;;;;;;;5.25;3.45;;;10.30;99.90;;;;;;5096041;28;20174;-59
2023/03/10 00:29:15;;;;;;;6.85;3.90;;;10.40;99.90;;;;;;5095965;28;20166;-60
2023/03/10 00:31:41;;;;;;;7.25;4.00;;;10.30;99.90;;;;;;5096423;28;20174;-59
2023/03/10 00:34:06;;;;;;;7.32;4.03;;;10.30;99.90;;;;;;5096114;28;20177;-59
2023/03/10 00:36:32;;;;;;;5.82;3.50;;;10.20;99.90;;;;;;5095953;28;20542;-59
2023/03/10 00:39:00;;;;;;;5.10;3.33;;;10.20;99.90;;;;;;5095958;28;20210;-59
2023/03/10 00:41:31;;;;;;;4.88;3.45;;;10.20;99.90;;;;;;5095607;28;20692;-59
2023/03/10 00:43:58;;;;;;;5.55;3.35;;;10.20;99.90;;;;;;5095879;28;20170;-59
2023/03/10 00:46:25;;;;;;;6.72;3.38;;;10.10;99.90;;;;;;5095893;28;20196;-59
2023/03/10 00:48:51;;;;;;;7.75;3.05;;;10.00;99.90;;;;;;5095611;28;20197;-59
2023/03/10 00:51:18;;;;;;;6.75;3.22;;;10.00;99.90;;;;;;5095810;28;20200;-59
2023/03/10 00:53:45;;;;;;;4.70;2.90;;;9.90;99.90;;;;;;5094404;28;20682;-59
2023/03/10 00:56:16;;;;;;;4.97;3.08;;;9.80;99.90;;;;;;5095678;28;20173;-59
2023/03/10 00:58:44;;;;;;;8.60;3.53;;;9.90;99.90;;;;;;5095448;28;20257;-59
2023/03/10 01:01:13;;;;;;;8.50;3.45;;;9.90;99.90;;;;;;5095433;28;20198;-59
2023/03/10 01:03:39;;;;;;;4.68;3.17;;;10.10;99.90;;;;;;5095294;28;20580;-60
2023/03/10 01:06:05;;;;;;;9.30;3.28;;;10.10;99.90;;;;;;5094244;28;20185;-60
2023/03/10 01:08:31;;;;;;;5.80;3.13;;;10.10;99.90;;;;;;5095280;28;20173;-59
2023/03/10 01:10:57;;;;;;;9.02;3.50;;;10.10;99.90;;;;;;5095304;28;20252;-59
2023/03/10 01:13:22;;;;;;;8.70;3.30;;;10.20;99.90;;;;;;5095387;28;20185;-59
2023/03/10 01:15:49;;;;;;;7.95;2.92;;;10.20;99.90;;;;;;5094914;28;20181;-59
2023/03/10 01:18:16;;;;;;;9.48;3.70;;;10.10;99.90;;;;;;5095139;28;20174;-59
2023/03/10 01:20:42;;;;;;;10.02;4.00;;;10.20;99.90;;;;;;5095009;28;20182;-59
2023/03/10 01:23:22;;;;;;;7.97;3.83;;;10.20;99.90;;;;;;5094747;28;20707;-59
2023/03/10 01:25:48;;;;;;;11.82;4.47;;;10.20;99.90;;;;;;5095175;28;20644;-59
2023/03/10 01:28:15;;;;;;;8.07;4.72;;;10.30;99.90;;;;;;5094888;28;20284;-59
2023/03/10 01:30:41;;;;;;;12.77;5.50;;;10.30;99.90;;;;;;5095042;28;20166;-59
2023/03/10 01:33:08;;;;;;;14.25;5.47;;;10.30;99.90;;;;;;5094823;28;20645;-59
2023/03/10 01:35:34;;;;;;;11.63;6.28;;;10.40;99.90;;;;;;5093636;28;20260;-59
2023/03/10 01:37:59;;;;;;;12.90;5.75;;;10.30;99.90;;;;;;5094654;28;20247;-59
2023/03/10 01:40:25;;;;;;;13.40;5.82;;;10.30;99.90;;;;;;5094791;28;20315;-59
2023/03/10 01:42:52;;;;;;;12.63;6.25;;;10.30;99.90;;;;;;5094847;28;20210;-60
2023/03/10 01:45:18;;;;;;;13.00;6.20;;;10.20;99.90;;;;;;5094673;28;20173;-59
2023/03/10 01:47:44;;;;;;;14.70;6.78;;;10.30;99.90;;;;;;5094570;28;20170;-59
2023/03/10 01:50:14;;;;;;;12.88;6.80;;;10.30;99.90;;;;;;5094625;28;20201;-59
2023/03/10 01:52:42;;;;;;;12.77;7.13;;;10.30;99.90;;;;;;5094383;28;20178;-60
2023/03/10 01:55:15;;;;;;;15.43;6.93;;;10.20;99.90;;;;;;5094664;28;20617;-59
2023/03/10 01:57:46;;;;;;;14.90;7.13;;;10.20;99.90;;;;;;5094500;28;20174;-59
2023/03/10 02:00:13;;;;;;;18.20;8.07;;;10.30;99.90;;;;;;5094536;28;20222;-59
2023/03/10 02:02:53;;;;;;;18.65;7.00;;;10.20;99.90;;;;;;5094081;28;20268;-59
2023/03/10 02:05:20;;;;;;;13.45;7.05;;;10.20;99.90;;;;;;5094465;28;20180;-59
2023/03/10 02:07:47;;;;;;;17.83;6.45;;;10.30;99.90;;;;;;5094410;28;20206;-59
2023/03/10 02:10:13;;;;;;;15.23;6.22;;;10.30;99.90;;;;;;5094051;28;20600;-59
2023/03/10 02:12:39;;;;;;;14.70;5.95;;;10.30;99.90;;;;;;5094272;28;20182;-60
2023/03/10 02:15:06;;;;;;;15.35;6.25;;;10.30;99.90;;;;;;5093986;28;20247;-59
2023/03/10 02:17:33;;;;;;;13.90;5.32;;;10.40;99.90;;;;;;5093870;28;20173;-59
2023/03/10 02:20:19;;;;;;;14.27;5.28;;;10.40;99.90;;;;;;5094162;28;20162;-59
2023/03/10 02:22:45;;;;;;;16.27;5.03;;;10.40;99.90;;;;;;5093931;28;20229;-59
2023/03/10 02:25:29;;;;;;;14.65;4.70;;;10.50;99.90;;;;;;5093897;28;20244;-59
2023/03/10 02:27:56;;;;;;;13.82;4.43;;;10.40;99.90;;;;;;5093182;28;20652;-59
2023/03/10 02:30:23;;;;;;;16.98;4.80;;;10.40;99.90;;;;;;5094188;28;20643;-59
2023/03/10 02:32:54;;;;;;;18.15;4.50;;;10.50;99.90;;;;;;5093856;28;20545;-59
2023/03/10 02:35:20;;;;;;;15.00;4.50;;;10.50;99.90;;;;;;5094064;28;20174;-59
2023/03/10 02:37:49;;;;;;;16.63;4.53;;;10.50;99.90;;;;;;5093793;28;20730;-59
2023/03/10 02:40:31;;;;;;;19.67;4.72;;;10.50;99.90;;;;;;5093505;28;20189;-60
2023/03/10 02:42:58;;;;;;;14.13;4.63;;;10.40;99.90;;;;;;5093906;28;20211;-59
2023/03/10 02:45:28;;;;;;;18.30;4.22;;;10.40;99.90;;;;;;5093796;28;20235;-58
2023/03/10 02:47:53;;;;;;;17.55;4.45;;;10.40;99.90;;;;;;5093545;28;20255;-59
2023/03/10 02:50:21;;;;;;;17.25;4.65;;;10.50;99.90;;;;;;5093677;28;20201;-59
2023/03/10 02:52:54;;;;;;;17.48;4.18;;;10.50;99.90;;;;;;5093316;28;20196;-59
2023/03/10 02:55:20;;;;;;;16.25;4.60;;;10.60;99.90;;;;;;5093371;28;20498;-59
2023/03/10 02:57:46;;;;;;;19.00;5.05;;;10.60;99.90;;;;;;5093471;28;20170;-59
2023/03/10 03:00:12;;;;;;;17.08;4.57;;;10.60;99.90;;;;;;5093456;28;20266;-59
2023/03/10 03:02:38;;;;;;;18.98;4.65;;;10.50;99.90;;;;;;5093174;28;20205;-59
2023/03/10 03:05:04;;;;;;;19.33;4.60;;;10.50;99.90;;;;;;5093317;28;20174;-60
2023/03/10 03:07:30;;;;;;;14.40;4.05;;;10.60;99.90;;;;;;5093452;28;20178;-59
2023/03/10 03:09:55;;;;;;;19.75;5.15;;;10.50;99.90;;;;;;5093417;28;20226;-59
2023/03/10 03:12:21;;;;;;;19.70;4.63;;;10.50;99.90;;;;;;5093297;28;20181;-59
2023/03/10 03:14:47;;;;;;;17.30;4.68;;;10.50;99.90;;;;;;5093273;28;20176;-59
2023/03/10 03:17:13;;;;;;;20.40;4.55;;;10.40;99.90;;;;;;5093169;28;20692;-59
2023/03/10 03:19:39;;;;;;;20.92;5.40;;;10.40;99.90;;;;;;5093371;28;20182;-60
2023/03/10 03:22:04;;;;;;;21.50;5.10;;;10.50;99.90;;;;;;5092656;28;20201;-59
2023/03/10 03:24:31;;;;;;;22.77;5.15;;;10.50;99.90;;;;;;5092901;28;20182;-59
2023/03/10 03:26:57;;;;;;;22.15;4.75;;;10.50;99.90;;;;;;5093189;28;20177;-59
2023/03/10 03:29:23;;;;;;;20.67;4.68;;;10.40;99.90;;;;;;5093184;28;20174;-59
2023/03/10 03:31:48;;;;;;;23.20;5.10;;;10.40;99.90;;;;;;5093162;28;20170;-59
2023/03/10 03:34:14;;;;;;;21.08;5.25;;;10.40;99.90;;;;;;5093462;28;20215;-59
2023/03/10 03:36:40;;;;;;;22.50;4.63;;;10.40;99.90;;;;;;5092928;28;20205;-60
2023/03/10 03:39:06;;;;;;;21.70;5.15;;;10.40;99.90;;;;;;5094614;28;20615;-59
2023/03/10 03:41:32;;;;;;;21.50;4.97;;;10.50;99.90;;;;;;5097029;28;20178;-59
2023/03/10 03:43:58;;;;;;;24.45;4.75;;;10.40;99.90;;;;;;5097105;28;20264;-59
2023/03/10 03:46:27;;;;;;;21.85;5.07;;;10.50;99.90;;;;;;5096978;28;20696;-59
2023/03/10 03:48:53;;;;;;;19.63;4.75;;;10.50;99.90;;;;;;5096858;28;20189;-59
2023/03/10 03:51:19;;;;;;;19.65;5.25;;;10.50;99.90;;;;;;5096806;28;20177;-59
2023/03/10 03:53:44;;;;;;;21.25;5.30;;;10.50;99.90;;;;;;5097008;28;20209;-59
2023/03/10 03:56:10;;;;;;;21.17;4.90;;;10.40;99.90;;;;;;5096700;28;20535;-59
2023/03/10 03:58:36;;;;;;;20.67;4.70;;;10.50;99.90;;;;;;5096795;28;20601;-59
2023/03/10 04:01:01;;;;;;;25.92;4.85;;;10.40;99.90;;;;;;5096759;28;20648;-59
2023/03/10 04:03:27;;;;;;;21.50;5.28;;;10.40;99.90;;;;;;5096527;28;20207;-59
2023/03/10 04:05:53;;;;;;;23.83;5.68;;;10.40;99.90;;;;;;5096631;28;20253;-60
2023/03/10 04:08:18;;;;;;;23.35;5.95;;;10.40;99.90;;;;;;5096441;28;20174;-59
2023/03/10 04:10:50;;;;;;;23.15;5.68;;;10.40;99.90;;;;;;5096874;28;20634;-59
2023/03/10 04:13:15;;;;;;;25.63;5.28;;;10.30;99.90;;;;;;5096553;28;20178;-60
2023/03/10 04:15:41;;;;;;;19.67;4.50;;;10.40;99.90;;;;;;5096483;28;20182;-59
2023/03/10 04:18:09;;;;;;;20.92;4.97;;;10.40;99.90;;;;;;5096348;28;20174;-59
2023/03/10 04:20:35;;;;;;;25.80;4.78;;;10.40;99.90;;;;;;5096199;28;20197;-59
2023/03/10 04:23:01;;;;;;;16.70;4.38;;;10.40;99.90;;;;;;5096354;28;20226;-59
2023/03/10 04:25:27;;;;;;;17.60;4.43;;;10.40;99.90;;;;;;5096408;28;20667;-61
2023/03/10 04:27:52;;;;;;;21.27;5.05;;;10.40;99.90;;;;;;5096064;28;20162;-59
2023/03/10 04:30:19;;;;;;;16.70;4.68;;;10.50;99.90;;;;;;5096138;28;20223;-59
2023/03/10 04:32:45;;;;;;;17.08;4.88;;;10.50;99.90;;;;;;5096094;28;20235;-60
2023/03/10 04:35:12;;;;;;;22.90;4.82;;;10.50;99.90;;;;;;5096043;28;20570;-59
2023/03/10 04:37:38;;;;;;;20.77;5.00;;;10.40;99.90;;;;;;5096377;28;20216;-59
2023/03/10 04:40:08;;;;;;;22.45;5.10;;;10.40;99.90;;;;;;5096024;28;20589;-60
2023/03/10 04:42:34;;;;;;;17.40;4.70;;;10.40;99.90;;;;;;5095778;28;20296;-60
2023/03/10 04:45:00;;;;;;;23.85;5.28;;;10.30;99.90;;;;;;5095811;28;20261;-59
2023/03/10 04:47:25;;;;;;;17.65;4.38;;;10.30;99.90;;;;;;5095700;28;20197;-59
2023/03/10 04:49:51;;;;;;;25.10;5.15;;;10.30;99.90;;;;;;5095011;28;20182;-61
2023/03/10 04:52:17;;;;;;;26.33;5.55;;;10.30;99.90;;;;;;5094508;28;20667;-60
2023/03/10 04:54:42;;;;;;;24.30;4.90;;;10.30;99.90;;;;;;5095905;28;20629;-59
2023/03/10 04:57:08;;;;;;;19.52;4.68;;;10.30;99.90;;;;;;5095611;28;20217;-60
2023/03/10 04:59:34;;;;;;;21.88;4.68;;;10.20;99.90;;;;;;5095586;28;20178;-59
2023/03/10 05:01:59;;;;;;;21.08;4.80;;;10.20;99.90;;;;;;5095345;28;20220;-59
2023/03/10 05:04:25;;;;;;;22.83;5.43;;;10.20;99.90;;;;;;5095324;28;20182;-59
2023/03/10 05:06:51;;;;;;;23.60;4.70;;;10.20;99.90;;;;;;5095520;28;20283;-60
2023/03/10 05:09:17;;;;;;;19.75;4.13;;;10.20;99.90;;;;;;5095529;28;20175;-59
2023/03/10 05:11:43;;;;;;;19.85;4.18;;;10.10;99.90;;;;;;5095342;28;20185;-59
2023/03/10 05:14:11;;;;;;;16.45;3.80;;;10.10;99.90;;;;;;5095349;28;20220;-59
2023/03/10 05:16:37;;;;;;;17.67;3.88;;;10.10;99.90;;;;;;5095265;28;20170;-59
2023/03/10 05:19:02;;;;;;;23.23;4.20;;;10.10;99.90;;;;;;5093996;28;20579;-60
2023/03/10 05:21:28;;;;;;;23.67;4.07;;;10.10;99.90;;;;;;5095156;28;20200;-60
2023/03/10 05:23:54;;;;;;;16.65;3.95;;;10.10;99.90;;;;;;5095198;28;20238;-60
2023/03/10 05:26:20;;;;;;;16.55;3.70;;;10.10;99.90;;;;;;5095090;28;20653;-59
2023/03/10 05:28:45;;;;;;;16.17;3.78;;;10.20;99.90;;;;;;5094996;28;20235;-59
2023/03/10 05:31:14;;;;;;;18.80;4.10;;;10.10;99.90;;;;;;5094932;28;20189;-59
2023/03/10 05:33:41;;;;;;;16.98;4.07;;;10.20;99.90;;;;;;5094713;28;20193;-60
2023/03/10 05:36:09;;;;;;;18.85;4.22;;;10.10;99.90;;;;;;5094973;28;20178;-60
2023/03/10 05:38:35;;;;;;;15.20;4.20;;;10.10;99.90;;;;;;5094732;28;20251;-59
2023/03/10 05:41:04;;;;;;;14.38;3.85;;;10.00;99.90;;;;;;5094812;28;20174;-60
2023/03/10 05:43:30;;;;;;;18.30;4.13;;;10.00;99.90;;;;;;5094526;28;20205;-59
2023/03/10 05:45:57;;;;;;;18.60;4.30;;;10.00;99.90;;;;;;5094635;28;20177;-59
2023/03/10 05:48:24;;;;;;;18.83;4.18;;;9.90;99.90;;;;;;5094433;28;20173;-59
2023/03/10 05:51:04;;;;;;;20.85;4.00;;;10.00;99.90;;;;;;5094683;28;20180;-59
2023/03/10 05:53:31;;;;;;;21.20;4.28;;;10.00;99.90;;;;;;5094539;28;20173;-59
2023/03/10 05:55:57;;;;;;;14.43;3.70;;;10.00;99.90;;;;;;5094436;28;20671;-58
2023/03/10 05:58:24;;;;;;;22.33;4.13;;;10.00;99.90;;;;;;5093361;28;20173;-59
2023/03/10 06:00:50;;;;;;;15.75;4.07;;;9.90;99.90;;;;;;5093513;28;20171;-60
2023/03/10 06:03:17;;;;;;;13.80;3.47;;;9.80;99.90;;;;;;5094092;28;20209;-60
2023/03/10 06:05:42;;;;;;;16.33;3.95;;;9.80;99.90;;;;;;5094307;28;20170;-60
2023/03/10 06:08:08;;;;;;;12.88;3.72;;;9.80;99.90;;;;;;5094271;28;20684;-60
2023/03/10 06:10:34;;;;;;;21.13;4.03;;;9.80;99.90;;;;;;5094157;28;20180;-60
2023/03/10 06:13:00;;;;;;;11.45;3.40;;;9.80;99.90;;;;;;5093941;28;20205;-60
2023/03/10 06:15:25;;;;;;;19.17;4.50;;;9.80;99.90;;;;;;5093953;28;20174;-60
2023/03/10 06:17:51;;;;;;;18.42;4.38;;;9.90;99.90;;;;;;5094170;28;20172;-60
2023/03/10 06:20:17;;;;;;;20.33;4.40;;;9.80;99.90;;;;;;5093940;28;20648;-60
2023/03/10 06:22:42;;;;;;;16.67;3.80;;;9.80;99.90;;;;;;5094022;28;20225;-60
2023/03/10 06:25:09;;;;;;;14.27;3.83;;;9.90;99.90;;;;;;5092911;28;20178;-60
2023/03/10 06:27:35;;;;;;;16.50;4.00;;;9.90;99.90;;;;;;5093927;28;20173;-60
2023/03/10 06:30:01;;;;;;;16.00;3.80;;;9.90;99.90;;;;;;5093601;28;20178;-60
2023/03/10 06:32:26;;;;;;;16.00;4.10;;;9.90;99.90;;;;;;5094150;28;20181;-61
2023/03/10 06:34:52;;;;;;;17.10;4.25;;;9.90;99.90;;;;;;5093830;28;20174;-61
2023/03/10 06:37:18;;;;;;;16.33;4.15;;;9.90;99.90;;;;;;5093890;28;20177;-60
2023/03/10 06:39:43;;;;;;;18.90;4.22;;;10.00;99.90;;;;;;5093644;28;20170;-60
2023/03/10 06:42:09;;;;;;;14.70;4.15;;;10.10;99.90;;;;;;5093516;28;20548;-60
2023/03/10 06:44:35;;;;;;;15.98;3.85;;;10.10;99.90;;;;;;5093477;28;20174;-60
2023/03/10 06:47:04;;;;;;;16.23;4.40;;;10.10;99.90;;;;;;5093890;28;20525;-60
2023/03/10 06:49:31;;;;;;;17.42;4.18;;;10.20;99.90;;;;;;5093570;28;20174;-60
2023/03/10 06:51:57;;;;;;;14.18;3.75;;;10.30;99.90;;;;;;5093504;28;20178;-60
2023/03/10 06:54:23;;;;;;;14.18;4.00;;;10.20;99.90;;;;;;5093267;28;20588;-60
2023/03/10 06:56:49;;;;;;;14.43;3.83;;;10.30;99.90;;;;;;5093209;28;20178;-60
2023/03/10 06:59:16;;;;;;;15.93;3.55;;;10.30;99.90;;;;;;5093272;28;20204;-60
2023/03/10 07:01:42;;;;;;;14.40;3.72;;;10.20;99.90;;;;;;5093384;28;20257;-59
2023/03/10 07:04:10;;;;;;;13.93;3.60;;;10.30;99.90;;;;;;5093682;28;20205;-60
2023/03/10 07:06:36;;;;;;;17.25;4.30;;;10.30;99.90;;;;;;5093330;28;20255;-59
2023/03/10 07:09:04;;;;;;;16.67;4.88;;;10.20;99.90;;;;;;5093223;28;20177;-59
2023/03/10 07:11:30;;;;;;;13.60;3.70;;;10.30;99.90;;;;;;5092990;28;20666;-60
2023/03/10 07:13:55;;;;;;;13.48;3.72;;;10.20;99.90;;;;;;5092105;28;20174;-60
2023/03/10 07:16:21;;;;;;;14.63;4.38;;;10.30;99.90;;;;;;5093447;28;20181;-60
2023/03/10 07:18:47;;;;;;;12.50;3.30;;;10.20;99.90;;;;;;5093138;28;20191;-59
2023/03/10 07:21:18;;;;;;;11.38;3.42;;;10.30;99.90;;;;;;5093117;28;20494;-59
2023/03/10 07:23:44;;;;;;;12.95;3.45;;;10.20;99.90;;;;;;5092830;28;20236;-60
2023/03/10 07:26:13;;;;;;;12.80;3.70;;;10.10;99.90;;;;;;5093052;28;20245;-60
2023/03/10 07:28:39;;;;;;;14.75;3.55;;;10.20;99.90;;;;;;5093249;28;20174;-60
2023/03/10 07:31:07;;;;;;;15.10;4.22;;;10.10;99.90;;;;;;5093300;28;20304;-59
2023/03/10 07:33:34;;;;;;;12.68;3.80;;;10.10;99.90;;;;;;5093158;28;20172;-60
2023/03/10 07:36:07;;;;;;;14.55;3.42;;;10.10;99.90;;;;;;5093048;28;20177;-60
2023/03/10 07:38:33;;;;;;;12.30;3.63;;;10.10;99.90;;;;;;5093274;28;20162;-59
2023/03/10 07:40:59;;;;;;;11.18;3.85;;;10.10;99.90;;;;;;5092905;28;20174;-60
2023/03/10 07:43:25;;;;;;;16.77;4.18;;;10.00;99.90;;;;;;5093001;28;20251;-60
2023/03/10 07:45:51;;;;;;;15.27;4.68;;;10.10;99.90;;;;;;5092947;28;20640;-60
2023/03/10 07:48:16;;;;;;;19.95;4.85;;;9.90;99.90;;;;;;5093058;28;20513;-60
2023/03/10 07:50:42;;;;;;;13.25;4.68;;;10.00;99.90;;;;;;5092876;28;20209;-59
2023/03/10 07:53:11;;;;;;;16.00;5.05;;;9.90;99.90;;;;;;5092924;28;20182;-59
2023/03/10 07:55:37;;;;;;;14.60;4.05;;;10.00;99.90;;;;;;5092738;28;20641;-61
2023/03/10 07:58:03;;;;;;;12.02;4.03;;;10.00;99.90;;;;;;5092888;28;20181;-60
2023/03/10 08:00:29;;;;;;;14.27;4.00;;;10.00;99.90;;;;;;5092833;28;20174;-60
2023/03/10 08:02:54;;;;;;;14.73;3.75;;;10.10;99.90;;;;;;5092636;28;20206;-60
2023/03/10 08:05:20;;;;;;;15.73;3.70;;;10.20;99.90;;;;;;5092834;28;20182;-60
2023/03/10 08:07:45;;;;;;;15.40;4.05;;;10.20;99.90;;;;;;5092743;28;20174;-60
2023/03/10 08:10:11;;;;;;;17.42;3.72;;;10.10;99.90;;;;;;5092482;28;20174;-60
2023/03/10 08:12:37;;;;;;;16.65;3.80;;;10.10;99.90;;;;;;5092547;28;20197;-60
2023/03/10 08:15:04;;;;;;;11.98;3.25;;;10.20;99.90;;;;;;5092801;28;20268;-60
2023/03/10 08:17:32;;;;;;;12.60;3.53;;;10.20;99.90;;;;;;5092658;28;20234;-60
2023/03/10 08:19:58;;;;;;;14.65;3.15;;;10.20;99.90;;;;;;5092585;28;20250;-60
2023/03/10 08:22:24;;;;;;;16.70;3.92;;;10.20;99.90;;;;;;5092416;28;20233;-60
2023/03/10 08:24:49;;;;;;;10.25;2.95;;;10.20;99.90;;;;;;5093765;28;20184;-60
2023/03/10 08:27:15;;;;;;;14.80;3.45;;;10.30;99.90;;;;;;5095145;28;20199;-60
2023/03/10 08:29:41;;;;;;;13.02;3.45;;;10.40;99.90;;;;;;5096271;28;20564;-60
2023/03/10 08:32:07;;;;;;;11.23;3.45;;;10.30;99.90;;;;;;5096133;28;20599;-60
2023/03/10 08:34:34;;;;;;;11.55;3.20;;;10.30;99.90;;;;;;5095987;28;20170;-60
2023/03/10 08:37:00;;;;;;;13.75;3.25;;;10.30;99.90;;;;;;5095922;28;20256;-60
2023/03/10 08:39:26;;;;;;;11.98;3.47;;;10.30;99.90;;;;;;5095968;28;20603;-60
2023/03/10 08:41:52;;;;;;;12.55;3.47;;;10.30;99.90;;;;;;5096162;28;20197;-60
2023/03/10 08:44:18;;;;;;;8.40;3.00;;;10.30;99.90;;;;;;5095965;28;20660;-60
2023/03/10 08:46:46;;;;;;;7.95;3.08;;;10.30;99.90;;;;;;5095803;28;20170;-60
2023/03/10 08:49:14;;;;;;;7.32;2.63;;;10.30;99.90;;;;;;5095605;28;20640;-60
2023/03/10 08:51:40;;;;;;;7.60;2.60;;;10.40;99.90;;;;;;5095628;28;20275;-60
2023/03/10 08:54:07;;;;;;;6.97;2.50;;;10.30;99.90;;;;;;5095802;28;20260;-60
2023/03/10 08:56:33;;;;;;;7.00;2.40;;;10.40;99.90;;;;;;5095714;28;20589;-59
2023/03/10 08:58:59;;;;;;;9.75;2.80;;;10.40;99.90;;;;;;5095597;28;20170;-60
2023/03/10 09:01:27;;;;;;;9.98;2.78;;;10.50;99.90;;;;;;5095540;28;20197;-61
2023/03/10 09:03:53;;;;;;;7.55;2.53;;;10.50;99.90;;;;;;5095395;28;20209;-60
2023/03/10 09:06:19;;;;;;;6.88;2.80;;;10.50;99.90;;;;;;5095291;28;20178;-60
2023/03/10 09:08:47;;;;;;;8.48;2.60;;;10.40;99.90;;;;;;5095593;28;20169;-60
2023/03/10 09:11:27;;;;;;;5.88;2.25;;;10.40;99.90;;;;;;5095333;28;20268;-60
2023/03/10 09:13:54;;;;;;;8.73;2.85;;;10.40;99.90;;;;;;5095336;28;20169;-60
2023/03/10 09:16:20;;;;;;;8.07;2.78;;;10.50;99.90;;;;;;5095300;28;20563;-60
2023/03/10 09:18:46;;;;;;;5.75;2.33;;;10.50;99.90;;;;;;5095154;28;20181;-60
2023/03/10 09:21:14;;;;;;;6.82;2.95;;;10.50;99.90;;;;;;5095022;28;20178;-60
2023/03/10 09:23:42;;;;;;;5.55;2.50;;;10.50;99.90;;;;;;5094538;28;20608;-60
2023/03/10 09:26:09;;;;;;;5.78;2.55;;;10.60;99.90;;;;;;5095070;28;20173;-60
2023/03/10 09:28:35;;;;;;;5.28;2.70;;;10.60;99.90;;;;;;5095066;28;20173;-60
2023/03/10 09:31:02;;;;;;;5.90;2.90;;;10.70;99.90;;;;;;5094988;28;20256;-60
2023/03/10 09:33:28;;;;;;;5.63;3.03;;;10.70;99.90;;;;;;5094814;28;20227;-60
2023/03/10 09:35:56;;;;;;;8.23;3.13;;;10.70;99.90;;;;;;5094596;28;20644;-59
2023/03/10 09:38:22;;;;;;;8.32;3.28;;;10.70;99.90;;;;;;5094824;28;20319;-60
2023/03/10 09:41:05;;;;;;;5.40;3.05;;;10.70;99.90;;;;;;5094763;28;20311;-60
2023/03/10 09:43:37;;;;;;;6.18;3.08;;;10.80;99.90;;;;;;5094690;28;20781;-60
2023/03/10 09:46:19;;;;;;;6.78;3.83;;;10.90;99.90;;;;;;5094571;28;20288;-60
2023/03/10 09:48:55;;;;;;;6.15;3.28;;;10.90;99.90;;;;;;5094769;28;20640;-60
2023/03/10 09:51:23;;;;;;;5.03;3.35;;;11.00;99.90;;;;;;5094872;28;20177;-60
2023/03/10 09:54:22;;;;;;;6.72;3.72;;;10.90;99.90;;;;;;5094557;28;20185;-60
2023/03/10 09:56:47;;;;;;;6.57;3.63;;;10.90;99.90;;;;;;5094647;28;20636;-60
2023/03/10 09:59:27;;;;;;;7.05;3.58;;;10.90;99.90;;;;;;5094733;28;20167;-60
2023/03/10 10:01:53;;;;;;;7.80;3.30;;;11.00;99.90;;;;;;5094575;28;20201;-60
2023/03/10 10:04:42;;;;;;;6.43;3.65;;;11.00;99.90;;;;;;5094185;28;20178;-60
2023/03/10 10:07:19;;;;;;;5.80;3.33;;;11.00;99.90;;;;;;5093793;28;20196;-60
2023/03/10 10:10:08;;;;;;;6.30;3.38;;;10.90;99.90;;;;;;5094293;28;20654;-60
2023/03/10 10:12:35;;;;;;;7.60;4.13;;;10.90;99.90;;;;;;5094280;28;20162;-60
2023/03/10 10:15:13;;;;;;;7.07;3.72;;;10.80;99.90;;;;;;5094012;28;20177;-60
2023/03/10 10:18:04;;;;;;;5.93;3.80;;;10.90;99.90;;;;;;5094250;28;20181;-60
2023/03/10 10:21:17;;;;;;;3.85;3.33;;;11.00;99.90;;;;;;5094113;28;20173;-60
2023/03/10 10:23:48;;;;;;;4.60;3.85;;;10.90;99.90;;;;;;5081301;28;20229;-60
2023/03/10 10:26:16;;;;;;;5.82;3.80;;;10.90;99.90;;;;;;5093945;28;20170;-60
2023/03/10 10:28:58;;;;;;;4.70;3.67;;;10.90;99.90;;;;;;5093908;28;20249;-60
2023/03/10 10:31:29;;;;;;;4.70;3.90;;;10.90;99.90;;;;;;5093818;28;20177;-60
2023/03/10 10:33:59;;;;;;;4.90;3.72;;;10.90;99.90;;;;;;5093734;28;20563;-60
2023/03/10 10:36:45;;;;;;;4.38;3.85;;;11.10;99.90;;;;;;5093914;28;20174;-60
2023/03/10 10:39:35;;;;;;;4.15;3.63;;;11.10;99.90;;;;;;5093689;28;20204;-60
2023/03/10 10:42:23;;;;;;;4.55;3.63;;;11.20;99.90;;;;;;5093559;28;20292;-60
2023/03/10 10:44:52;;;;;;;4.93;3.65;;;11.20;99.90;;;;;;5093604;28;20205;-60
2023/03/10 10:47:33;;;;;;;4.22;3.90;;;11.10;99.90;;;;;;5093140;28;20181;-60
2023/03/10 10:50:22;;;;;;;4.97;4.50;;;11.10;99.90;;;;;;5093613;28;20173;-60
2023/03/10 10:52:51;;;;;;;5.55;4.97;;;11.20;99.90;;;;;;5093467;28;20203;-60
2023/03/10 10:55:33;;;;;;;4.78;4.32;;;11.20;99.90;;;;;;5093541;28;20185;-60
2023/03/10 10:58:00;;;;;;;4.68;4.10;;;11.20;99.90;;;;;;5093522;28;20219;-60
2023/03/10 11:00:37;;;;;;;5.85;4.47;;;11.30;99.90;;;;;;5093257;28;20663;-60
2023/03/10 11:03:26;;;;;;;5.88;4.57;;;11.40;99.90;;;;;;5093160;28;20290;-60
2023/03/10 11:05:52;;;;;;;5.40;4.90;;;11.50;99.90;;;;;;5093474;28;20174;-60
2023/03/10 11:08:31;;;;;;;6.03;5.25;;;11.50;99.90;;;;;;5093328;28;20334;-60
2023/03/10 11:11:10;;;;;;;5.90;5.40;;;11.50;99.90;;;;;;5093250;28;20174;-60
2023/03/10 11:13:43;;;;;;;6.88;5.50;;;11.70;99.90;;;;;;5093154;28;20169;-60
2023/03/10 11:16:24;;;;;;;13.02;7.05;;;11.70;99.90;;;;;;5093264;28;20178;-60
2023/03/10 11:19:37;;;;;;;7.30;6.50;;;11.60;99.90;;;;;;5093264;28;20261;-60
2023/03/10 11:22:16;;;;;;;7.43;6.22;;;11.70;99.90;;;;;;5075890;28;20232;-60
2023/03/10 11:24:51;;;;;;;7.07;6.30;;;11.90;99.90;;;;;;5093294;28;20174;-60
2023/03/10 11:27:35;;;;;;;6.45;5.85;;;12.10;99.90;;;;;;5093299;28;20200;-60
2023/03/10 11:30:20;;;;;;;6.82;5.93;;;12.30;99.90;;;;;;5093074;28;20196;-60
2023/03/10 11:33:13;;;;;;;6.15;5.55;;;12.30;99.90;;;;;;5093113;28;20536;-60
2023/03/10 11:35:44;;;;;;;8.60;7.80;;;12.50;99.90;;;;;;5093155;28;20173;-60
2023/03/10 11:38:19;;;;;;;9.20;8.30;;;12.50;99.90;;;;;;5092955;28;20185;-60
2023/03/10 11:40:48;;;;;;;9.95;9.05;;;12.50;99.90;;;;;;5092931;28;20204;-60
2023/03/10 11:43:48;;;;;;;11.38;10.43;;;12.30;99.90;;;;;;5092818;28;20240;-60
2023/03/10 11:46:23;;;;;;;10.90;9.93;;;12.30;99.90;;;;;;5086613;28;20691;-59
2023/03/10 11:48:49;;;;;;;10.77;9.88;;;12.30;99.90;;;;;;5092340;28;20177;-59
2023/03/10 11:51:41;;;;;;;9.82;9.02;;;12.10;99.90;;;;;;5092535;28;20193;-59
2023/03/10 11:54:23;;;;;;;9.93;9.02;;;11.90;99.90;;;;;;5089219;28;20636;-59
2023/03/10 11:56:50;;;;;;;7.85;7.15;;;12.00;99.90;;;;;;5092890;28;20263;-60
2023/03/10 11:59:30;;;;;;;6.80;6.20;;;11.90;99.90;;;;;;5093173;28;20223;-60
2023/03/10 12:02:13;;;;;;;5.90;5.40;;;11.90;99.90;;;;;;5096845;28;20201;-60
2023/03/10 12:05:11;;;;;;;5.97;5.40;;;11.80;99.90;;;;;;5096588;28;20533;-59
2023/03/10 12:07:43;;;;;;;4.30;3.90;;;11.70;99.90;;;;;;5096465;28;20510;-59
2023/03/10 12:10:11;;;;;;;4.57;3.55;;;11.50;99.90;;;;;;5096462;28;20162;-60
2023/03/10 12:12:45;;;;;;;4.53;3.90;;;11.60;99.90;;;;;;5096574;28;20544;-60
2023/03/10 12:15:29;;;;;;;4.70;4.40;;;11.70;99.90;;;;;;5096608;28;20245;-60
2023/03/10 12:17:55;;;;;;;4.40;4.10;;;11.40;99.90;;;;;;5096357;28;20280;-59
2023/03/10 12:20:21;;;;;;;4.38;3.97;;;11.00;99.90;;;;;;5096217;28;20656;-60
2023/03/10 12:22:51;;;;;;;5.15;4.10;;;10.80;99.90;;;;;;5096115;28;20225;-60
2023/03/10 12:25:31;;;;;;;4.45;4.05;;;10.60;99.90;;;;;;5096435;28;20158;-59
2023/03/10 12:28:15;;;;;;;4.15;3.85;;;10.50;99.90;;;;;;5096171;28;20268;-59
2023/03/10 12:30:56;;;;;;;4.93;3.72;;;10.30;99.90;;;;;;5096089;28;20173;-59
2023/03/10 12:33:36;;;;;;;4.03;3.72;;;10.30;99.90;;;;;;5096138;28;20190;-59
2023/03/10 12:36:14;;;;;;;3.63;3.33;;;10.40;99.90;;;;;;5096175;28;20188;-59
2023/03/10 12:38:47;;;;;;;3.60;3.30;;;10.40;99.90;;;;;;5096267;28;20243;-59
2023/03/10 12:41:25;;;;;;;4.43;3.05;;;10.40;99.90;;;;;;5095847;28;20217;-60
2023/03/10 12:43:51;;;;;;;3.63;2.97;;;10.40;99.90;;;;;;5095953;28;20201;-59
2023/03/10 12:46:42;;;;;;;3.30;3.00;;;10.20;99.90;;;;;;5095880;28;20531;-59
2023/03/10 12:49:23;;;;;;;3.30;3.00;;;10.20;99.90;;;;;;5092906;28;20186;-59
2023/03/10 12:52:14;;;;;;;4.18;2.97;;;10.20;99.90;;;;;;5095682;28;20180;-59
2023/03/10 12:55:03;;;;;;;3.10;2.80;;;10.20;99.90;;;;;;5092619;28;20224;-59